Time;durP1;ratioP1;P1;durP2;ratioP2;P2;SDS_P1;SDS_P2;PMS_P1;PMS_P2;Temp;Humidity;BMP_temperature;BMP_pressure;BME280_temperature;BME280_humidity;BME280_pressure;Samples;Min_cycle;Max_cycle;Signal;HPM_P1;HPM_P2
2022/03/19 00:00:11;;;;;;;35.33;15.80;;;8.20;99.90;;;;;;4954501;29;20054;-73
2022/03/19 00:02:38;;;;;;;37.13;16.65;;;8.20;99.90;;;;;;4954224;29;20106;-73
2022/03/19 00:05:08;;;;;;;40.13;17.35;;;8.20;99.90;;;;;;4954153;29;20097;-73
2022/03/19 00:07:37;;;;;;;35.30;17.13;;;8.20;99.90;;;;;;4955164;28;20538;-73
2022/03/19 00:10:08;;;;;;;36.58;16.88;;;8.20;99.90;;;;;;4938452;29;20051;-72
2022/03/19 00:12:39;;;;;;;41.80;19.38;;;8.10;99.90;;;;;;4953974;29;20047;-73
2022/03/19 00:15:08;;;;;;;37.13;17.52;;;8.10;99.90;;;;;;4938334;29;20134;-72
2022/03/19 00:17:36;;;;;;;35.67;16.65;;;8.10;99.90;;;;;;4953565;29;20067;-72
2022/03/19 00:20:04;;;;;;;35.28;16.63;;;8.10;99.90;;;;;;4953913;29;20491;-73
2022/03/19 00:22:31;;;;;;;42.13;17.52;;;8.20;99.90;;;;;;4955001;29;20135;-72
2022/03/19 00:24:58;;;;;;;41.50;17.73;;;8.20;99.90;;;;;;4972634;28;20529;-73
2022/03/19 00:27:25;;;;;;;42.50;16.35;;;8.20;99.90;;;;;;4955528;28;20483;-73
2022/03/19 00:29:52;;;;;;;35.30;16.60;;;8.10;99.90;;;;;;4922415;29;20058;-72
2022/03/19 00:32:19;;;;;;;30.15;15.52;;;8.10;99.90;;;;;;4954700;28;20389;-73
2022/03/19 00:34:46;;;;;;;30.63;16.27;;;8.10;99.90;;;;;;4953918;29;20480;-73
2022/03/19 00:37:14;;;;;;;41.85;18.17;;;8.10;99.90;;;;;;4955341;28;20055;-72
2022/03/19 00:39:42;;;;;;;53.22;17.00;;;8.10;99.90;;;;;;4954681;28;20043;-73
2022/03/19 00:42:10;;;;;;;35.55;16.30;;;8.10;99.90;;;;;;4952894;29;20498;-73
2022/03/19 00:44:37;;;;;;;36.28;15.32;;;8.10;99.90;;;;;;4937663;29;20057;-72
2022/03/19 00:47:04;;;;;;;33.05;16.00;;;8.10;99.90;;;;;;4937227;29;20054;-72
2022/03/19 00:49:32;;;;;;;43.72;18.73;;;8.10;99.90;;;;;;4954601;28;20083;-72
2022/03/19 00:51:58;;;;;;;35.78;17.35;;;8.10;99.90;;;;;;4952801;28;20058;-72
2022/03/19 00:54:25;;;;;;;38.40;15.82;;;8.10;99.90;;;;;;4969340;28;20065;-72
2022/03/19 00:56:52;;;;;;;36.92;17.00;;;8.10;99.90;;;;;;4960545;28;20047;-72
2022/03/19 00:59:19;;;;;;;37.95;17.30;;;8.10;99.90;;;;;;4953021;29;20044;-75
2022/03/19 01:01:47;;;;;;;39.00;16.27;;;8.00;99.90;;;;;;4953879;29;20483;-73
2022/03/19 01:04:15;;;;;;;39.75;17.27;;;8.10;99.90;;;;;;4954250;28;20051;-72
2022/03/19 01:06:43;;;;;;;42.10;17.52;;;8.00;99.90;;;;;;4937418;29;20055;-72
2022/03/19 01:09:11;;;;;;;38.00;18.75;;;8.00;99.90;;;;;;4953277;28;20058;-72
2022/03/19 01:11:38;;;;;;;43.00;17.38;;;8.00;99.90;;;;;;4954170;28;20125;-72
2022/03/19 01:14:06;;;;;;;39.35;18.80;;;8.00;99.90;;;;;;4954160;28;20051;-72
2022/03/19 01:16:34;;;;;;;46.33;17.50;;;8.00;99.90;;;;;;4937358;29;20047;-72
2022/03/19 01:19:01;;;;;;;39.55;17.27;;;8.00;99.90;;;;;;4952716;29;20063;-72
2022/03/19 01:21:27;;;;;;;37.65;17.48;;;8.00;99.90;;;;;;4952946;29;20113;-72
2022/03/19 01:23:54;;;;;;;32.63;17.98;;;8.00;99.90;;;;;;4947162;28;20410;-72
2022/03/19 01:26:22;;;;;;;43.17;20.65;;;8.00;99.90;;;;;;4962448;28;20058;-72
2022/03/19 01:28:49;;;;;;;43.00;19.05;;;8.00;99.90;;;;;;4952250;29;20067;-72
2022/03/19 01:31:16;;;;;;;30.50;16.90;;;8.00;99.90;;;;;;4952642;29;20539;-72
2022/03/19 01:33:43;;;;;;;35.72;19.52;;;8.00;99.90;;;;;;4936814;29;20080;-72
2022/03/19 01:36:10;;;;;;;36.95;19.60;;;8.00;99.90;;;;;;4936466;29;20448;-72
2022/03/19 01:38:37;;;;;;;47.22;19.15;;;8.00;99.90;;;;;;4936431;29;20051;-72
2022/03/19 01:41:05;;;;;;;45.03;21.02;;;8.00;99.90;;;;;;4952351;29;20058;-75
2022/03/19 01:43:32;;;;;;;40.42;19.58;;;8.00;99.90;;;;;;4953894;28;20047;-73
2022/03/19 01:46:00;;;;;;;39.03;19.10;;;8.00;99.90;;;;;;4951964;28;20062;-72
2022/03/19 01:48:27;;;;;;;36.05;19.70;;;8.00;99.90;;;;;;4952189;29;20043;-72
2022/03/19 01:50:54;;;;;;;35.63;21.58;;;8.00;99.90;;;;;;4952949;29;20368;-72
2022/03/19 01:53:21;;;;;;;41.05;18.88;;;8.00;99.90;;;;;;4960038;28;20047;-72
2022/03/19 01:55:48;;;;;;;37.70;20.08;;;8.00;99.90;;;;;;4966439;28;20055;-72
2022/03/19 01:58:15;;;;;;;36.33;20.05;;;8.10;99.90;;;;;;4920664;29;20057;-73
2022/03/19 02:00:42;;;;;;;37.05;19.92;;;8.00;99.90;;;;;;4936738;29;20047;-73
2022/03/19 02:03:10;;;;;;;42.45;21.13;;;8.10;99.90;;;;;;4939824;29;20047;-73
2022/03/19 02:05:38;;;;;;;37.72;20.38;;;8.10;99.90;;;;;;4940153;29;20051;-72
2022/03/19 02:08:05;;;;;;;36.55;19.00;;;8.00;99.90;;;;;;4956433;29;20055;-73
2022/03/19 02:10:34;;;;;;;43.17;21.38;;;8.00;99.90;;;;;;4956982;28;20048;-73
2022/03/19 02:13:02;;;;;;;36.95;19.42;;;8.00;99.90;;;;;;4957351;28;20098;-72
2022/03/19 02:15:29;;;;;;;42.67;20.40;;;8.00;99.90;;;;;;4957287;29;20047;-72
2022/03/19 02:17:56;;;;;;;41.92;21.30;;;8.00;99.90;;;;;;4940113;29;20077;-72
2022/03/19 02:20:23;;;;;;;42.13;20.98;;;7.90;99.90;;;;;;4956276;29;20051;-72
2022/03/19 02:25:39;;;;;;;34.13;18.45;;;8.00;99.90;;;;;;4971325;28;20047;-73
2022/03/19 02:28:06;;;;;;;41.33;21.42;;;8.00;99.90;;;;;;4956012;29;20047;-72
2022/03/19 02:30:38;;;;;;;35.88;20.23;;;8.00;99.90;;;;;;4939931;29;20404;-73
2022/03/19 02:33:05;;;;;;;40.63;20.02;;;8.00;99.90;;;;;;4955883;29;20142;-72
2022/03/19 02:35:32;;;;;;;38.20;19.33;;;7.90;99.90;;;;;;4940004;29;20044;-73
2022/03/19 02:37:59;;;;;;;37.95;19.65;;;8.00;99.90;;;;;;4955444;29;20051;-72
2022/03/19 02:40:26;;;;;;;49.35;22.48;;;8.00;99.90;;;;;;4955144;29;20061;-74
2022/03/19 02:42:54;;;;;;;37.45;20.70;;;8.00;99.90;;;;;;4955578;28;20103;-73
2022/03/19 02:45:22;;;;;;;34.08;20.83;;;7.90;99.90;;;;;;4939914;29;20051;-72
2022/03/19 02:47:59;;;;;;;50.00;22.52;;;7.90;99.90;;;;;;4939029;29;20059;-72
2022/03/19 02:50:34;;;;;;;40.97;20.50;;;7.90;99.90;;;;;;4955669;29;20055;-72
2022/03/19 02:53:03;;;;;;;33.70;20.15;;;7.90;99.90;;;;;;4939625;29;20058;-72
2022/03/19 02:55:31;;;;;;;44.22;21.55;;;7.90;99.90;;;;;;4939462;29;20125;-72
2022/03/19 02:57:59;;;;;;;35.33;22.73;;;7.90;99.90;;;;;;4939790;29;20209;-73
2022/03/19 03:00:26;;;;;;;40.97;22.25;;;7.80;99.90;;;;;;4954983;29;20051;-73
2022/03/19 03:02:57;;;;;;;41.10;21.17;;;7.90;99.90;;;;;;4956303;28;20047;-73
2022/03/19 03:05:24;;;;;;;39.80;20.10;;;7.90;99.90;;;;;;4955285;29;20051;-73
2022/03/19 03:07:51;;;;;;;41.88;23.15;;;7.80;99.90;;;;;;4939737;29;20055;-73
2022/03/19 03:10:19;;;;;;;37.90;22.45;;;7.90;99.90;;;;;;4939264;29;20055;-73
2022/03/19 03:12:45;;;;;;;35.80;22.10;;;7.80;99.90;;;;;;4940386;29;20047;-72
2022/03/19 03:15:12;;;;;;;36.67;24.75;;;7.80;99.90;;;;;;4955087;28;20047;-72
2022/03/19 03:17:40;;;;;;;37.78;21.75;;;7.80;99.90;;;;;;4954791;29;20051;-72
2022/03/19 03:20:07;;;;;;;35.88;21.60;;;7.80;99.90;;;;;;4954969;29;20067;-73
2022/03/19 03:22:37;;;;;;;32.42;21.83;;;7.80;99.90;;;;;;4956217;28;20047;-73
2022/03/19 03:25:05;;;;;;;33.78;20.83;;;7.80;99.90;;;;;;4965875;28;20048;-73
2022/03/19 03:27:32;;;;;;;31.73;21.05;;;7.80;99.90;;;;;;4956229;28;20113;-73
2022/03/19 03:30:00;;;;;;;36.05;23.67;;;7.80;99.90;;;;;;4954937;29;20043;-73
2022/03/19 03:32:26;;;;;;;40.63;20.88;;;7.80;99.90;;;;;;4953248;29;20054;-73
2022/03/19 03:34:53;;;;;;;44.35;23.55;;;7.70;99.90;;;;;;4955971;28;20047;-73
2022/03/19 03:37:21;;;;;;;46.28;23.75;;;7.70;99.90;;;;;;4955578;28;20047;-73
2022/03/19 03:39:49;;;;;;;43.55;24.70;;;7.70;99.90;;;;;;4954512;29;20055;-73
2022/03/19 03:42:16;;;;;;;38.30;23.40;;;7.70;99.90;;;;;;4955208;28;20052;-73
2022/03/19 03:44:43;;;;;;;38.65;23.70;;;7.70;99.90;;;;;;4955988;28;20231;-73
2022/03/19 03:47:10;;;;;;;36.58;22.95;;;7.70;99.90;;;;;;4955304;28;20062;-72
2022/03/19 03:49:37;;;;;;;37.65;23.20;;;7.60;99.90;;;;;;4954191;28;20488;-72
2022/03/19 03:52:07;;;;;;;32.85;22.17;;;7.60;99.90;;;;;;4955436;28;20514;-72
2022/03/19 03:54:34;;;;;;;35.03;23.33;;;7.60;99.90;;;;;;4970349;28;20058;-72
2022/03/19 03:57:03;;;;;;;37.03;20.77;;;7.60;99.90;;;;;;4943040;29;20047;-72
2022/03/19 03:59:30;;;;;;;44.60;24.23;;;7.60;99.90;;;;;;4953983;29;20051;-73
2022/03/19 04:01:58;;;;;;;33.60;24.02;;;7.60;99.90;;;;;;4938583;29;20062;-73
2022/03/19 04:04:25;;;;;;;40.15;23.15;;;7.60;99.90;;;;;;4954030;29;20054;-73
2022/03/19 04:06:52;;;;;;;44.63;23.60;;;7.60;99.90;;;;;;4955350;28;20057;-72
2022/03/19 04:09:28;;;;;;;32.42;20.33;;;7.60;99.90;;;;;;4955478;28;20348;-72
2022/03/19 04:11:55;;;;;;;33.83;21.05;;;7.60;99.90;;;;;;4955293;28;20131;-72
2022/03/19 04:14:22;;;;;;;31.92;23.02;;;7.60;99.90;;;;;;4955324;28;20055;-72
2022/03/19 04:16:52;;;;;;;30.23;21.02;;;7.60;99.90;;;;;;4937886;29;20047;-73
2022/03/19 04:19:20;;;;;;;31.25;22.45;;;7.60;99.90;;;;;;4955246;28;20059;-72
2022/03/19 04:21:48;;;;;;;41.90;22.80;;;7.60;99.90;;;;;;4955301;28;20087;-72
2022/03/19 04:24:15;;;;;;;37.83;21.42;;;7.60;99.90;;;;;;4967373;28;20131;-72
2022/03/19 04:26:42;;;;;;;31.95;22.38;;;7.60;99.90;;;;;;4961118;28;20051;-73
2022/03/19 04:29:09;;;;;;;32.67;20.92;;;7.60;99.90;;;;;;4953923;29;20047;-73
2022/03/19 04:31:36;;;;;;;32.88;21.55;;;7.60;99.90;;;;;;4953682;29;20101;-73
2022/03/19 04:34:03;;;;;;;35.60;21.98;;;7.60;99.90;;;;;;4937918;29;20492;-73
2022/03/19 04:36:32;;;;;;;34.70;20.80;;;7.60;99.90;;;;;;4955165;29;20043;-73
2022/03/19 04:39:02;;;;;;;32.38;21.55;;;7.60;99.90;;;;;;4955104;28;20047;-73
2022/03/19 04:41:30;;;;;;;32.58;20.10;;;7.50;99.90;;;;;;4937893;29;20462;-73
2022/03/19 04:43:56;;;;;;;33.70;21.08;;;7.50;99.90;;;;;;4954647;28;20058;-73
2022/03/19 04:46:25;;;;;;;31.98;21.83;;;7.50;99.90;;;;;;4953256;29;20051;-73
2022/03/19 04:48:52;;;;;;;33.42;20.83;;;7.50;99.90;;;;;;4937882;29;20399;-72
2022/03/19 04:51:20;;;;;;;34.20;19.65;;;7.50;99.90;;;;;;4953251;29;20055;-73
2022/03/19 04:53:50;;;;;;;35.58;20.40;;;7.50;99.90;;;;;;4918394;28;20048;-72
2022/03/19 04:56:18;;;;;;;32.65;19.98;;;7.50;99.90;;;;;;4947609;29;20090;-72
2022/03/19 04:58:46;;;;;;;29.70;18.75;;;7.50;99.90;;;;;;4954424;28;20058;-73
2022/03/19 05:01:13;;;;;;;27.92;19.02;;;7.50;99.90;;;;;;4953138;29;20055;-73
2022/03/19 05:03:40;;;;;;;29.98;19.98;;;7.50;99.90;;;;;;4954643;28;20055;-73
2022/03/19 05:06:07;;;;;;;27.92;17.70;;;7.50;99.90;;;;;;4954283;28;20494;-73
2022/03/19 05:08:34;;;;;;;30.05;18.60;;;7.40;99.90;;;;;;4954756;28;20047;-73
2022/03/19 05:11:13;;;;;;;29.73;17.55;;;7.40;99.90;;;;;;4952459;29;20130;-73
2022/03/19 05:13:41;;;;;;;26.60;18.67;;;7.40;99.90;;;;;;4953332;29;20051;-72
2022/03/19 05:16:08;;;;;;;26.50;16.75;;;7.40;99.90;;;;;;4954302;28;20344;-72
2022/03/19 05:18:35;;;;;;;29.10;16.90;;;7.40;99.90;;;;;;4952775;28;20063;-72
2022/03/19 05:21:03;;;;;;;29.20;17.85;;;7.40;99.90;;;;;;4952921;29;20059;-72
2022/03/19 05:23:31;;;;;;;30.17;17.25;;;7.40;99.90;;;;;;4960897;28;20054;-72
2022/03/19 05:25:58;;;;;;;29.20;19.00;;;7.40;99.90;;;;;;4949580;29;20051;-72
2022/03/19 05:28:26;;;;;;;29.25;18.80;;;7.40;99.90;;;;;;4936738;29;20051;-73
2022/03/19 05:30:53;;;;;;;25.58;17.17;;;7.30;99.90;;;;;;4952296;29;20050;-72
2022/03/19 05:34:29;;;;;;;27.35;17.33;;;7.30;99.90;;;;;;4936761;29;20051;-73
2022/03/19 05:36:07;;;;;;;26.13;17.27;;;7.30;99.90;;;;;;4953301;28;20051;-73
2022/03/19 05:38:35;;;;;;;27.55;16.50;;;7.30;99.90;;;;;;4937076;29;20051;-73
2022/03/19 05:41:02;;;;;;;28.55;17.55;;;7.30;99.90;;;;;;4952173;29;20479;-73
2022/03/19 05:43:29;;;;;;;24.02;15.73;;;7.30;99.90;;;;;;4953525;28;20527;-73
2022/03/19 05:45:57;;;;;;;28.00;17.40;;;7.20;99.90;;;;;;4954351;28;20043;-73
2022/03/19 05:48:24;;;;;;;28.30;18.00;;;7.20;99.90;;;;;;4954332;28;20521;-72
2022/03/19 05:50:53;;;;;;;27.30;16.73;;;7.20;99.90;;;;;;4921584;29;20376;-73
2022/03/19 05:53:24;;;;;;;27.10;16.20;;;7.20;99.90;;;;;;4937895;29;20059;-72
2022/03/19 05:55:51;;;;;;;28.55;16.20;;;7.20;99.90;;;;;;4952585;29;20059;-72
2022/03/19 05:58:18;;;;;;;25.33;16.45;;;7.20;99.90;;;;;;4936707;29;20487;-73
2022/03/19 06:00:46;;;;;;;24.40;15.90;;;7.20;99.90;;;;;;4921176;29;20055;-73
2022/03/19 06:03:13;;;;;;;28.75;16.98;;;7.20;99.90;;;;;;4936131;29;20507;-73
2022/03/19 06:05:40;;;;;;;31.55;17.80;;;7.10;99.90;;;;;;4936401;29;20056;-72
2022/03/19 06:08:07;;;;;;;30.55;18.45;;;7.20;99.90;;;;;;4936925;29;20047;-73
2022/03/19 06:10:35;;;;;;;24.95;16.27;;;7.20;99.90;;;;;;4953127;28;20051;-73
2022/03/19 06:13:03;;;;;;;24.85;16.45;;;7.20;99.90;;;;;;4953663;28;20054;-72
2022/03/19 06:15:30;;;;;;;22.70;15.23;;;7.10;99.90;;;;;;4953752;28;20047;-72
2022/03/19 06:18:00;;;;;;;27.48;16.20;;;7.20;99.90;;;;;;4953345;28;20498;-72
2022/03/19 06:20:27;;;;;;;;;;;7.20;99.90;;;;;;4952246;29;20048;-72
2022/03/19 06:22:54;;;;;;;22.00;15.25;;;7.10;99.90;;;;;;4955300;28;20354;-73
2022/03/19 06:25:21;;;;;;;24.25;14.73;;;7.10;99.90;;;;;;4969890;28;20145;-73
2022/03/19 06:27:50;;;;;;;28.30;15.43;;;7.10;99.90;;;;;;4952242;29;20491;-73
2022/03/19 06:30:17;;;;;;;22.50;15.02;;;7.10;99.90;;;;;;4953438;28;20055;-72
2022/03/19 06:32:44;;;;;;;24.92;16.67;;;7.10;99.90;;;;;;4952061;29;20178;-73
2022/03/19 06:37:19;;;;;;;23.98;14.48;;;7.20;99.90;;;;;;4952303;29;20051;-73
2022/03/19 06:38:00;;;;;;;25.60;15.68;;;7.10;99.90;;;;;;4952391;29;20088;-73
2022/03/19 06:40:27;;;;;;;27.80;16.30;;;7.20;99.90;;;;;;4935418;29;20055;-73
2022/03/19 06:42:55;;;;;;;25.98;14.93;;;7.20;99.90;;;;;;4953345;28;20058;-73
2022/03/19 06:45:23;;;;;;;23.85;15.05;;;7.20;99.90;;;;;;4952050;29;20058;-73
2022/03/19 06:47:50;;;;;;;26.92;14.00;;;7.20;99.90;;;;;;4953491;28;20058;-73
2022/03/19 06:50:17;;;;;;;28.50;15.70;;;7.20;99.90;;;;;;4955074;28;20454;-72
2022/03/19 06:52:44;;;;;;;23.40;14.63;;;7.30;99.90;;;;;;4957329;28;20058;-73
2022/03/19 06:55:11;;;;;;;30.42;15.35;;;7.30;99.90;;;;;;4975987;28;20402;-73
2022/03/19 06:57:38;;;;;;;22.50;15.15;;;7.30;99.90;;;;;;4935338;29;20476;-72
2022/03/19 07:00:06;;;;;;;28.27;15.98;;;7.30;99.90;;;;;;4952121;29;20079;-73
2022/03/19 07:02:52;;;;;;;23.40;14.70;;;7.30;99.90;;;;;;4937569;29;20048;-73
2022/03/19 07:05:23;;;;;;;26.10;16.30;;;7.40;99.90;;;;;;4921629;29;20424;-73
2022/03/19 07:07:50;;;;;;;23.00;14.32;;;7.40;99.90;;;;;;4952041;29;20499;-73
2022/03/19 07:10:19;;;;;;;26.02;15.55;;;7.40;99.90;;;;;;4936318;29;20060;-73
2022/03/19 07:12:46;;;;;;;22.85;15.10;;;7.50;99.90;;;;;;4937419;29;20058;-72
2022/03/19 07:15:14;;;;;;;17.85;12.50;;;7.50;99.90;;;;;;4920791;29;20071;-73
2022/03/19 07:17:41;;;;;;;19.17;12.95;;;7.60;99.90;;;;;;4935702;29;20147;-73
2022/03/19 07:20:09;;;;;;;19.50;14.43;;;7.60;99.90;;;;;;4920678;29;20097;-73
2022/03/19 07:22:55;;;;;;;26.92;14.00;;;7.70;99.90;;;;;;4937741;28;20058;-73
2022/03/19 07:25:25;;;;;;;20.10;14.95;;;7.70;99.90;;;;;;4973743;28;20047;-73
2022/03/19 07:27:54;;;;;;;26.25;14.57;;;7.70;99.90;;;;;;4923394;29;20054;-73
2022/03/19 07:30:22;;;;;;;20.85;14.07;;;7.80;99.90;;;;;;4956144;28;20051;-73
2022/03/19 07:32:49;;;;;;;24.08;15.18;;;7.80;99.90;;;;;;4938685;29;20051;-73
2022/03/19 07:35:16;;;;;;;20.17;14.32;;;7.90;99.90;;;;;;4954643;29;20134;-73
2022/03/19 07:37:44;;;;;;;21.88;14.25;;;7.90;99.90;;;;;;4971272;28;20544;-73
2022/03/19 07:40:12;;;;;;;24.05;14.65;;;7.90;99.90;;;;;;4970709;28;20055;-73
2022/03/19 07:42:40;;;;;;;24.02;15.25;;;8.00;99.90;;;;;;4976869;28;20063;-73
2022/03/19 07:45:09;;;;;;;21.63;13.57;;;8.10;99.90;;;;;;4938678;29;20076;-74
2022/03/19 07:47:37;;;;;;;26.88;13.73;;;8.10;99.90;;;;;;4954677;29;20051;-72
2022/03/19 07:50:05;;;;;;;21.13;14.25;;;8.20;99.90;;;;;;4954557;29;20059;-73
2022/03/19 07:52:33;;;;;;;22.13;14.07;;;8.20;99.90;;;;;;4938941;29;20050;-73
2022/03/19 07:55:00;;;;;;;21.35;14.63;;;8.30;99.90;;;;;;4935512;29;20381;-73
2022/03/19 07:57:28;;;;;;;23.17;15.32;;;8.30;99.90;;;;;;4952647;29;20062;-73
2022/03/19 07:59:55;;;;;;;24.42;14.98;;;8.40;99.90;;;;;;4954438;28;20047;-72
2022/03/19 08:02:29;;;;;;;22.83;15.57;;;8.40;99.90;;;;;;4939586;29;20055;-73
2022/03/19 08:05:00;;;;;;;26.52;15.52;;;8.50;99.90;;;;;;4954383;29;20538;-73
2022/03/19 08:07:28;;;;;;;24.30;15.10;;;8.60;99.90;;;;;;4953914;29;20062;-73
2022/03/19 08:09:54;;;;;;;26.20;14.77;;;8.60;99.90;;;;;;4938554;29;20067;-72
2022/03/19 08:12:21;;;;;;;29.40;15.98;;;8.70;99.90;;;;;;4954881;28;20058;-73
2022/03/19 08:14:49;;;;;;;20.55;15.07;;;8.70;99.90;;;;;;4954278;29;20058;-73
2022/03/19 08:17:16;;;;;;;21.55;14.65;;;8.70;99.90;;;;;;4938008;29;20078;-73
2022/03/19 08:19:43;;;;;;;26.55;16.17;;;8.70;99.90;;;;;;4938458;29;20047;-73
2022/03/19 08:22:29;;;;;;;24.30;15.95;;;8.80;99.90;;;;;;4955479;28;20051;-73
2022/03/19 08:24:56;;;;;;;30.20;15.48;;;8.80;99.90;;;;;;4938366;29;20491;-73
2022/03/19 08:27:26;;;;;;;26.25;16.85;;;8.90;99.90;;;;;;4953364;29;20049;-73
2022/03/19 08:29:55;;;;;;;21.95;16.95;;;8.90;99.90;;;;;;4955173;28;20055;-73
2022/03/19 08:32:22;;;;;;;29.30;16.13;;;9.00;99.90;;;;;;4938442;29;20047;-73
2022/03/19 08:34:49;;;;;;;24.10;16.65;;;9.00;99.90;;;;;;4955281;28;20126;-73
2022/03/19 08:37:16;;;;;;;20.80;15.27;;;9.00;99.90;;;;;;4953795;29;20055;-72
2022/03/19 08:42:34;;;;;;;27.45;17.73;;;9.10;99.90;;;;;;4953366;29;20154;-73
2022/03/19 08:45:02;;;;;;;24.92;15.68;;;9.20;99.90;;;;;;4937716;29;20070;-73
2022/03/19 08:47:29;;;;;;;28.83;17.08;;;9.30;99.90;;;;;;4953357;29;20047;-73
2022/03/19 08:49:56;;;;;;;26.02;17.80;;;9.40;99.90;;;;;;4953579;29;20059;-72
2022/03/19 08:52:23;;;;;;;27.83;17.95;;;9.40;99.90;;;;;;4954608;28;20043;-73
2022/03/19 08:54:50;;;;;;;27.42;16.75;;;9.50;99.90;;;;;;4972666;28;20133;-73
2022/03/19 08:57:18;;;;;;;26.65;16.77;;;9.50;99.90;;;;;;4956795;28;20051;-72
2022/03/19 08:59:46;;;;;;;24.23;15.77;;;9.60;99.90;;;;;;4953326;29;20059;-73
2022/03/19 09:02:34;;;;;;;32.80;17.05;;;9.70;99.90;;;;;;4952934;29;20058;-73
2022/03/19 09:05:01;;;;;;;30.00;16.30;;;9.70;99.00;;;;;;4952841;29;20054;-73
2022/03/19 09:07:28;;;;;;;23.05;15.80;;;9.70;98.20;;;;;;4953259;29;20070;-73
2022/03/19 09:09:56;;;;;;;24.77;15.88;;;9.70;97.80;;;;;;4953313;29;20063;-72
2022/03/19 09:12:33;;;;;;;23.95;15.57;;;9.80;98.30;;;;;;4953374;28;20047;-72
2022/03/19 09:15:00;;;;;;;29.27;17.27;;;9.80;97.20;;;;;;4954344;28;20074;-72
2022/03/19 09:17:27;;;;;;;27.30;17.52;;;9.80;96.40;;;;;;4952525;29;20070;-73
2022/03/19 09:19:54;;;;;;;24.88;15.60;;;9.90;96.40;;;;;;4954241;29;20141;-72
2022/03/19 09:22:21;;;;;;;21.75;16.27;;;10.00;96.50;;;;;;4954456;28;20074;-73
2022/03/19 09:24:48;;;;;;;24.90;17.08;;;10.10;97.50;;;;;;4970704;28;20055;-73
2022/03/19 09:27:16;;;;;;;29.55;16.38;;;10.20;96.90;;;;;;4955646;28;20078;-72
2022/03/19 09:29:44;;;;;;;29.30;17.15;;;10.20;96.60;;;;;;4954166;28;20063;-73
2022/03/19 09:32:12;;;;;;;28.80;16.30;;;10.30;95.70;;;;;;4952831;29;20078;-72
2022/03/19 09:34:39;;;;;;;24.80;17.58;;;10.30;96.00;;;;;;4953633;28;20051;-73
2022/03/19 09:37:07;;;;;;;28.23;16.25;;;10.40;96.30;;;;;;4954023;28;20047;-72
2022/03/19 09:39:34;;;;;;;28.55;17.55;;;10.40;95.40;;;;;;4952170;29;20055;-73
2022/03/19 09:42:02;;;;;;;20.50;16.00;;;10.40;95.60;;;;;;4952257;29;20053;-72
2022/03/19 09:44:29;;;;;;;31.95;17.35;;;10.40;94.70;;;;;;4937012;29;20121;-73
2022/03/19 09:46:56;;;;;;;23.48;17.30;;;10.40;94.70;;;;;;4937005;29;20055;-72
2022/03/19 09:49:24;;;;;;;24.05;17.02;;;10.40;95.30;;;;;;4952648;29;20055;-73
2022/03/19 09:51:54;;;;;;;32.92;17.08;;;10.50;93.90;;;;;;4936925;29;20423;-72
2022/03/19 09:54:25;;;;;;;25.17;15.45;;;10.50;93.00;;;;;;4937300;29;20129;-73
2022/03/19 09:56:52;;;;;;;26.90;16.52;;;10.50;93.30;;;;;;4953492;28;20142;-73
2022/03/19 09:59:22;;;;;;;28.45;16.60;;;10.60;94.30;;;;;;4952462;29;20047;-73
2022/03/19 10:01:50;;;;;;;23.92;16.65;;;10.70;94.20;;;;;;4953917;28;20403;-73
2022/03/19 10:04:19;;;;;;;23.67;16.02;;;10.70;94.20;;;;;;4952399;29;20474;-73
2022/03/19 10:09:44;;;;;;;23.88;16.38;;;10.70;95.00;;;;;;4952780;29;21027;-72
2022/03/19 10:12:18;;;;;;;24.20;16.08;;;10.80;93.80;;;;;;4952518;29;20055;-73
2022/03/19 10:14:51;;;;;;;24.77;16.17;;;10.80;93.80;;;;;;4951778;29;20071;-72
2022/03/19 10:17:40;;;;;;;31.65;18.73;;;10.90;93.40;;;;;;4936240;29;20550;-73
2022/03/19 10:20:11;;;;;;;28.92;18.58;;;10.80;93.30;;;;;;4936520;29;20051;-72
2022/03/19 10:22:40;;;;;;;24.33;15.10;;;10.80;93.40;;;;;;4954558;28;20062;-72
2022/03/19 10:25:11;;;;;;;30.23;17.25;;;10.90;93.00;;;;;;4943528;28;20050;-73
2022/03/19 10:27:40;;;;;;;28.73;16.50;;;10.90;93.10;;;;;;4936791;29;20083;-72
2022/03/19 10:30:10;;;;;;;25.77;16.75;;;10.90;92.80;;;;;;4936717;29;20047;-72
2022/03/19 10:32:41;;;;;;;;;;;10.90;92.50;;;;;;4921939;29;20047;-73
2022/03/19 10:35:44;;;;;;;28.73;16.20;;;11.00;92.20;;;;;;4936277;29;19933;-73
2022/03/19 10:38:19;;;;;;;23.77;16.02;;;11.00;91.70;;;;;;4845044;29;20056;-72
2022/03/19 10:40:47;;;;;;;30.80;16.02;;;11.10;91.40;;;;;;4923325;29;20052;-72
2022/03/19 10:43:17;;;;;;;26.70;15.52;;;11.20;91.80;;;;;;4949797;29;20051;-72
2022/03/19 10:45:47;;;;;;;26.83;17.48;;;11.10;91.10;;;;;;4924489;29;20054;-72
2022/03/19 10:48:22;;;;;;;28.50;14.98;;;11.20;90.90;;;;;;4940172;29;20126;-72
2022/03/19 10:50:50;;;;;;;25.25;14.98;;;11.20;90.50;;;;;;4924429;29;20047;-72
2022/03/19 10:53:18;;;;;;;28.02;15.50;;;11.20;90.30;;;;;;4954903;29;20506;-72
2022/03/19 10:55:45;;;;;;;26.40;15.10;;;11.20;90.40;;;;;;4956878;28;20056;-72
2022/03/19 10:58:13;;;;;;;24.85;15.55;;;11.20;91.30;;;;;;4939395;29;20050;-73
2022/03/19 11:01:02;;;;;;;27.17;15.73;;;11.30;90.30;;;;;;4955857;29;20122;-73
2022/03/19 11:03:30;;;;;;;27.27;17.65;;;11.30;90.40;;;;;;4955359;29;20047;-72
2022/03/19 11:06:04;;;;;;;23.65;15.10;;;11.30;90.10;;;;;;4955930;29;20089;-72
2022/03/19 11:08:37;;;;;;;25.88;15.07;;;11.40;88.90;;;;;;4956059;29;20436;-72
2022/03/19 11:11:07;;;;;;;27.90;14.85;;;11.40;89.10;;;;;;4955001;29;20491;-73
2022/03/19 11:13:37;;;;;;;31.23;16.10;;;11.40;89.40;;;;;;4923807;29;20058;-72
2022/03/19 11:16:06;;;;;;;25.33;15.70;;;11.40;89.70;;;;;;4955185;29;20129;-72
2022/03/19 11:18:33;;;;;;;28.80;15.13;;;11.40;89.50;;;;;;4939317;29;20138;-72
2022/03/19 11:21:00;;;;;;;22.95;15.45;;;11.30;88.40;;;;;;4939441;29;20059;-72
2022/03/19 11:23:34;;;;;;;31.58;17.17;;;11.40;87.90;;;;;;4939522;29;20135;-73
2022/03/19 11:26:01;;;;;;;25.65;16.90;;;11.50;90.00;;;;;;4955385;29;20054;-72
2022/03/19 11:28:28;;;;;;;33.60;16.52;;;11.50;89.60;;;;;;4955138;29;20375;-73
2022/03/19 11:30:59;;;;;;;21.88;14.57;;;11.50;89.30;;;;;;4955156;29;20047;-72
2022/03/19 11:33:27;;;;;;;26.15;14.52;;;11.60;89.60;;;;;;4955640;29;20051;-72
2022/03/19 11:35:54;;;;;;;24.08;15.65;;;11.60;89.00;;;;;;4954592;28;20411;-72
2022/03/19 11:38:23;;;;;;;24.55;14.90;;;11.50;87.90;;;;;;4955620;28;20513;-72
2022/03/19 11:40:58;;;;;;;36.30;17.55;;;11.50;88.10;;;;;;4939878;29;20047;-72
2022/03/19 11:43:31;;;;;;;25.20;14.90;;;11.50;87.90;;;;;;4963302;28;20058;-71
2022/03/19 11:46:10;;;;;;;23.88;14.63;;;11.60;87.70;;;;;;4963394;28;20066;-72
2022/03/19 11:48:50;;;;;;;28.83;15.48;;;11.60;88.10;;;;;;4961810;28;20101;-72
2022/03/19 11:51:38;;;;;;;28.17;15.13;;;11.60;87.00;;;;;;4963174;29;20061;-71
2022/03/19 11:54:16;;;;;;;27.73;16.42;;;11.60;87.70;;;;;;4974705;28;20090;-71
2022/03/19 11:56:43;;;;;;;20.25;14.68;;;11.60;88.00;;;;;;4952560;29;20055;-72
2022/03/19 11:59:15;;;;;;;22.50;14.80;;;11.70;87.00;;;;;;4964328;28;20463;-73
2022/03/19 12:01:57;;;;;;;22.05;15.35;;;11.80;84.30;;;;;;4960562;29;20061;-72
2022/03/19 12:04:24;;;;;;;21.98;14.50;;;11.80;83.70;;;;;;4960942;29;20051;-72
2022/03/19 12:06:56;;;;;;;26.30;13.43;;;11.70;85.10;;;;;;4955553;29;20047;-72
2022/03/19 12:09:52;;;;;;;26.88;13.88;;;11.80;85.30;;;;;;4955275;29;20069;-72
2022/03/19 12:12:23;;;;;;;24.00;13.70;;;11.90;83.90;;;;;;4938190;29;20102;-72
2022/03/19 12:14:50;;;;;;;20.20;12.35;;;12.00;84.40;;;;;;4956552;28;20106;-73
2022/03/19 12:17:23;;;;;;;21.45;12.40;;;11.90;84.20;;;;;;4954321;29;20058;-72
2022/03/19 12:20:01;;;;;;;24.10;14.02;;;11.90;85.00;;;;;;4954397;29;20054;-72
2022/03/19 12:22:42;;;;;;;20.05;13.55;;;12.00;85.20;;;;;;4938885;29;20126;-72
2022/03/19 12:25:16;;;;;;;19.25;11.77;;;12.00;82.60;;;;;;4973576;28;20050;-73
2022/03/19 12:27:54;;;;;;;22.30;12.02;;;12.00;83.50;;;;;;4953770;29;20063;-72
2022/03/19 12:30:24;;;;;;;21.17;12.27;;;12.00;83.20;;;;;;4922862;29;20518;-73
2022/03/19 12:32:56;;;;;;;18.80;11.85;;;11.90;84.00;;;;;;4953417;29;20130;-73
2022/03/19 12:35:39;;;;;;;22.73;12.75;;;11.90;84.80;;;;;;4953512;29;20059;-73
2022/03/19 12:38:06;;;;;;;22.58;12.85;;;12.00;83.70;;;;;;4953539;29;20058;-73
2022/03/19 12:43:20;;;;;;;21.13;11.63;;;11.90;84.20;;;;;;4934033;29;20055;-73
2022/03/19 12:45:49;;;;;;;21.67;12.38;;;12.00;82.70;;;;;;4949200;29;20048;-72
2022/03/19 12:48:19;;;;;;;17.90;11.20;;;12.00;83.90;;;;;;4933619;29;20522;-72
2022/03/19 12:50:54;;;;;;;22.10;12.23;;;12.00;84.40;;;;;;4935647;29;20081;-72
2022/03/19 12:53:37;;;;;;;24.52;12.52;;;12.00;83.80;;;;;;4938757;29;20059;-72
2022/03/19 12:56:33;;;;;;;19.08;11.10;;;12.00;81.80;;;;;;4953436;29;20051;-72